sensor_id;sensor_type;location;lat;lon;timestamp;temperature;humidity
12303;DHT22;6214;48.012;7.862;2023-05-29T00:00:48;16.70;99.90
12303;DHT22;6214;48.012;7.862;2023-05-29T00:03:15;16.80;99.90
12303;DHT22;6214;48.012;7.862;2023-05-29T00:05:44;16.60;99.90
12303;DHT22;6214;48.012;7.862;2023-05-29T00:08:11;16.60;99.90
12303;DHT22;6214;48.012;7.862;2023-05-29T00:10:38;16.60;99.90
12303;DHT22;6214;48.012;7.862;2023-05-29T00:13:05;16.70;99.90
12303;DHT22;6214;48.012;7.862;2023-05-29T00:15:34;16.60;99.90
12303;DHT22;6214;48.012;7.862;2023-05-29T00:18:01;16.70;99.90
12303;DHT22;6214;48.012;7.862;2023-05-29T00:20:28;16.60;99.90
12303;DHT22;6214;48.012;7.862;2023-05-29T00:22:55;16.70;99.90
12303;DHT22;6214;48.012;7.862;2023-05-29T00:27:53;16.40;99.90
12303;DHT22;6214;48.012;7.862;2023-05-29T00:30:20;16.40;99.90
12303;DHT22;6214;48.012;7.862;2023-05-29T00:32:46;16.20;99.90
12303;DHT22;6214;48.012;7.862;2023-05-29T00:35:14;16.30;99.90
12303;DHT22;6214;48.012;7.862;2023-05-29T00:37:40;16.30;99.90
12303;DHT22;6214;48.012;7.862;2023-05-29T00:40:08;16.30;99.90
12303;DHT22;6214;48.012;7.862;2023-05-29T00:42:35;16.20;99.90
12303;DHT22;6214;48.012;7.862;2023-05-29T00:45:03;16.10;99.90
12303;DHT22;6214;48.012;7.862;2023-05-29T00:47:30;16.10;99.90
12303;DHT22;6214;48.012;7.862;2023-05-29T00:49:57;16.20;99.90
12303;DHT22;6214;48.012;7.862;2023-05-29T00:52:26;16.20;99.90
12303;DHT22;6214;48.012;7.862;2023-05-29T00:54:55;16.20;99.90
12303;DHT22;6214;48.012;7.862;2023-05-29T00:57:22;15.90;99.90
12303;DHT22;6214;48.012;7.862;2023-05-29T00:59:50;16.00;99.90
12303;DHT22;6214;48.012;7.862;2023-05-29T01:02:18;15.90;99.90
12303;DHT22;6214;48.012;7.862;2023-05-29T01:04:46;15.90;99.90
12303;DHT22;6214;48.012;7.862;2023-05-29T01:07:14;15.80;99.90
12303;DHT22;6214;48.012;7.862;2023-05-29T01:09:42;16.00;99.90
12303;DHT22;6214;48.012;7.862;2023-05-29T01:15:33;15.80;99.90
12303;DHT22;6214;48.012;7.862;2023-05-29T01:29:10;15.20;99.90
12303;DHT22;6214;48.012;7.862;2023-05-29T01:31:42;15.30;99.90
12303;DHT22;6214;48.012;7.862;2023-05-29T01:34:10;15.40;99.90
12303;DHT22;6214;48.012;7.862;2023-05-29T01:36:37;15.40;99.90
12303;DHT22;6214;48.012;7.862;2023-05-29T01:39:04;15.40;99.90
12303;DHT22;6214;48.012;7.862;2023-05-29T01:41:33;15.50;99.90
12303;DHT22;6214;48.012;7.862;2023-05-29T01:44:04;15.30;99.90
12303;DHT22;6214;48.012;7.862;2023-05-29T01:46:31;15.40;99.90
12303;DHT22;6214;48.012;7.862;2023-05-29T01:48:58;15.50;99.90
12303;DHT22;6214;48.012;7.862;2023-05-29T01:51:25;15.40;99.90
12303;DHT22;6214;48.012;7.862;2023-05-29T01:53:52;15.20;99.90
12303;DHT22;6214;48.012;7.862;2023-05-29T01:56:20;15.30;99.90
12303;DHT22;6214;48.012;7.862;2023-05-29T01:58:47;15.00;99.90
12303;DHT22;6214;48.012;7.862;2023-05-29T02:01:14;15.10;99.90
12303;DHT22;6214;48.012;7.862;2023-05-29T02:03:41;15.10;99.90
12303;DHT22;6214;48.012;7.862;2023-05-29T02:06:08;14.90;99.90
12303;DHT22;6214;48.012;7.862;2023-05-29T02:08:35;15.00;99.90
12303;DHT22;6214;48.012;7.862;2023-05-29T02:11:02;14.90;99.90
12303;DHT22;6214;48.012;7.862;2023-05-29T02:13:29;14.80;99.90
12303;DHT22;6214;48.012;7.862;2023-05-29T02:15:56;14.70;99.90
12303;DHT22;6214;48.012;7.862;2023-05-29T02:20:51;14.80;99.90
12303;DHT22;6214;48.012;7.862;2023-05-29T02:23:18;14.90;99.90
12303;DHT22;6214;48.012;7.862;2023-05-29T02:25:46;14.80;99.90
12303;DHT22;6214;48.012;7.862;2023-05-29T02:28:13;14.80;99.90
12303;DHT22;6214;48.012;7.862;2023-05-29T02:30:40;14.90;99.90
12303;DHT22;6214;48.012;7.862;2023-05-29T02:33:07;14.80;99.90
12303;DHT22;6214;48.012;7.862;2023-05-29T02:35:33;14.60;99.90
12303;DHT22;6214;48.012;7.862;2023-05-29T02:38:00;14.60;99.90
12303;DHT22;6214;48.012;7.862;2023-05-29T02:40:27;14.60;99.90
12303;DHT22;6214;48.012;7.862;2023-05-29T02:42:54;14.60;99.90
12303;DHT22;6214;48.012;7.862;2023-05-29T02:45:21;14.70;99.90
12303;DHT22;6214;48.012;7.862;2023-05-29T02:47:48;14.60;99.90
12303;DHT22;6214;48.012;7.862;2023-05-29T02:50:15;14.60;99.90
12303;DHT22;6214;48.012;7.862;2023-05-29T02:52:42;14.50;99.90
12303;DHT22;6214;48.012;7.862;2023-05-29T02:55:09;14.50;99.90
12303;DHT22;6214;48.012;7.862;2023-05-29T02:57:36;14.30;99.90
12303;DHT22;6214;48.012;7.862;2023-05-29T03:00:03;14.40;99.90
12303;DHT22;6214;48.012;7.862;2023-05-29T03:02:35;14.50;99.90
12303;DHT22;6214;48.012;7.862;2023-05-29T03:05:02;14.40;99.90
12303;DHT22;6214;48.012;7.862;2023-05-29T03:07:29;14.30;99.90
12303;DHT22;6214;48.012;7.862;2023-05-29T03:09:56;14.40;99.90
12303;DHT22;6214;48.012;7.862;2023-05-29T03:12:25;14.20;99.90
12303;DHT22;6214;48.012;7.862;2023-05-29T03:14:54;14.30;99.90
12303;DHT22;6214;48.012;7.862;2023-05-29T03:17:23;14.20;99.90
12303;DHT22;6214;48.012;7.862;2023-05-29T03:19:50;14.30;99.90
12303;DHT22;6214;48.012;7.862;2023-05-29T03:22:18;14.20;99.90
12303;DHT22;6214;48.012;7.862;2023-05-29T03:24:45;14.20;99.90
12303;DHT22;6214;48.012;7.862;2023-05-29T03:27:12;14.10;99.90
12303;DHT22;6214;48.012;7.862;2023-05-29T03:29:39;14.00;99.90
12303;DHT22;6214;48.012;7.862;2023-05-29T03:32:06;13.80;99.90
12303;DHT22;6214;48.012;7.862;2023-05-29T03:34:33;13.70;99.90
12303;DHT22;6214;48.012;7.862;2023-05-29T03:37:00;14.00;99.90
12303;DHT22;6214;48.012;7.862;2023-05-29T03:39:28;14.20;99.90
12303;DHT22;6214;48.012;7.862;2023-05-29T03:41:55;14.00;99.90
12303;DHT22;6214;48.012;7.862;2023-05-29T03:44:23;14.00;99.90
12303;DHT22;6214;48.012;7.862;2023-05-29T03:46:51;13.90;99.90
12303;DHT22;6214;48.012;7.862;2023-05-29T03:49:18;13.90;99.90
12303;DHT22;6214;48.012;7.862;2023-05-29T03:51:45;13.90;99.90
12303;DHT22;6214;48.012;7.862;2023-05-29T03:54:12;14.00;99.90
12303;DHT22;6214;48.012;7.862;2023-05-29T03:56:39;13.80;99.90
12303;DHT22;6214;48.012;7.862;2023-05-29T03:59:05;13.90;99.90
12303;DHT22;6214;48.012;7.862;2023-05-29T04:01:33;14.00;99.90
12303;DHT22;6214;48.012;7.862;2023-05-29T04:04:00;14.10;99.90
12303;DHT22;6214;48.012;7.862;2023-05-29T04:06:27;13.90;99.90
12303;DHT22;6214;48.012;7.862;2023-05-29T04:08:54;14.10;99.90
12303;DHT22;6214;48.012;7.862;2023-05-29T04:11:21;14.00;99.90
12303;DHT22;6214;48.012;7.862;2023-05-29T04:13:49;14.00;99.90
12303;DHT22;6214;48.012;7.862;2023-05-29T04:16:16;13.90;99.90
12303;DHT22;6214;48.012;7.862;2023-05-29T04:18:42;13.90;99.90
12303;DHT22;6214;48.012;7.862;2023-05-29T04:21:10;14.10;99.90
12303;DHT22;6214;48.012;7.862;2023-05-29T04:23:38;14.00;99.90
12303;DHT22;6214;48.012;7.862;2023-05-29T04:26:05;14.10;99.90
12303;DHT22;6214;48.012;7.862;2023-05-29T04:28:32;14.20;99.90
12303;DHT22;6214;48.012;7.862;2023-05-29T04:30:59;14.20;99.90
12303;DHT22;6214;48.012;7.862;2023-05-29T04:33:27;14.20;99.90
12303;DHT22;6214;48.012;7.862;2023-05-29T04:35:56;14.20;99.90
12303;DHT22;6214;48.012;7.862;2023-05-29T04:38:23;14.20;99.90
12303;DHT22;6214;48.012;7.862;2023-05-29T04:40:53;14.10;99.90
12303;DHT22;6214;48.012;7.862;2023-05-29T04:43:24;14.20;99.90
12303;DHT22;6214;48.012;7.862;2023-05-29T04:45:53;14.10;99.90
12303;DHT22;6214;48.012;7.862;2023-05-29T04:48:20;14.20;99.90
12303;DHT22;6214;48.012;7.862;2023-05-29T04:50:47;14.30;99.90
12303;DHT22;6214;48.012;7.862;2023-05-29T04:53:15;14.20;99.90
12303;DHT22;6214;48.012;7.862;2023-05-29T04:55:42;14.10;99.90
12303;DHT22;6214;48.012;7.862;2023-05-29T04:58:09;14.20;99.90
12303;DHT22;6214;48.012;7.862;2023-05-29T05:00:38;14.10;99.90
12303;DHT22;6214;48.012;7.862;2023-05-29T05:03:05;14.20;99.90
12303;DHT22;6214;48.012;7.862;2023-05-29T05:05:32;14.50;99.90
12303;DHT22;6214;48.012;7.862;2023-05-29T05:07:59;14.50;99.90
12303;DHT22;6214;48.012;7.862;2023-05-29T05:10:26;14.40;99.90
12303;DHT22;6214;48.012;7.862;2023-05-29T05:12:53;14.50;99.90
12303;DHT22;6214;48.012;7.862;2023-05-29T05:15:20;14.70;99.90
12303;DHT22;6214;48.012;7.862;2023-05-29T05:17:47;14.70;99.90
12303;DHT22;6214;48.012;7.862;2023-05-29T05:20:14;14.60;99.90
12303;DHT22;6214;48.012;7.862;2023-05-29T05:22:41;14.90;99.90
12303;DHT22;6214;48.012;7.862;2023-05-29T05:25:08;15.30;99.90
12303;DHT22;6214;48.012;7.862;2023-05-29T05:27:35;15.40;99.90
12303;DHT22;6214;48.012;7.862;2023-05-29T05:30:03;15.60;99.90
12303;DHT22;6214;48.012;7.862;2023-05-29T05:32:31;15.70;99.90
12303;DHT22;6214;48.012;7.862;2023-05-29T05:34:58;16.00;99.90
12303;DHT22;6214;48.012;7.862;2023-05-29T05:37:25;16.00;99.90
12303;DHT22;6214;48.012;7.862;2023-05-29T05:39:52;16.20;99.90
12303;DHT22;6214;48.012;7.862;2023-05-29T05:42:20;16.30;99.90
12303;DHT22;6214;48.012;7.862;2023-05-29T05:44:47;16.40;99.90
12303;DHT22;6214;48.012;7.862;2023-05-29T05:47:14;16.60;99.90
12303;DHT22;6214;48.012;7.862;2023-05-29T05:49:41;16.90;99.90
12303;DHT22;6214;48.012;7.862;2023-05-29T05:52:10;17.00;99.90
12303;DHT22;6214;48.012;7.862;2023-05-29T05:54:37;17.30;99.90
12303;DHT22;6214;48.012;7.862;2023-05-29T05:57:04;17.50;99.90
12303;DHT22;6214;48.012;7.862;2023-05-29T05:59:31;17.60;99.90
12303;DHT22;6214;48.012;7.862;2023-05-29T06:01:58;17.10;99.90
12303;DHT22;6214;48.012;7.862;2023-05-29T06:04:24;17.60;99.90
12303;DHT22;6214;48.012;7.862;2023-05-29T06:06:52;17.90;99.90
12303;DHT22;6214;48.012;7.862;2023-05-29T06:09:18;18.00;99.90
12303;DHT22;6214;48.012;7.862;2023-05-29T06:11:48;18.40;99.90
12303;DHT22;6214;48.012;7.862;2023-05-29T06:14:15;18.50;99.90
12303;DHT22;6214;48.012;7.862;2023-05-29T06:16:42;18.50;99.90
12303;DHT22;6214;48.012;7.862;2023-05-29T06:19:09;18.70;99.90
12303;DHT22;6214;48.012;7.862;2023-05-29T06:21:36;19.00;99.90
12303;DHT22;6214;48.012;7.862;2023-05-29T06:24:04;19.30;99.90
12303;DHT22;6214;48.012;7.862;2023-05-29T06:26:31;19.50;99.90
12303;DHT22;6214;48.012;7.862;2023-05-29T06:28:59;19.70;99.90
12303;DHT22;6214;48.012;7.862;2023-05-29T06:31:26;20.20;99.90
12303;DHT22;6214;48.012;7.862;2023-05-29T06:33:53;19.90;99.90
12303;DHT22;6214;48.012;7.862;2023-05-29T06:36:21;20.10;99.90
12303;DHT22;6214;48.012;7.862;2023-05-29T06:38:48;20.20;99.90
12303;DHT22;6214;48.012;7.862;2023-05-29T06:41:15;20.50;99.90
12303;DHT22;6214;48.012;7.862;2023-05-29T06:43:43;20.70;99.90
12303;DHT22;6214;48.012;7.862;2023-05-29T06:46:10;20.70;99.90
12303;DHT22;6214;48.012;7.862;2023-05-29T06:48:37;20.60;99.90
12303;DHT22;6214;48.012;7.862;2023-05-29T06:51:04;21.30;99.90
12303;DHT22;6214;48.012;7.862;2023-05-29T06:53:38;21.70;99.90
12303;DHT22;6214;48.012;7.862;2023-05-29T06:56:05;22.30;99.90
12303;DHT22;6214;48.012;7.862;2023-05-29T06:58:33;22.30;99.90
12303;DHT22;6214;48.012;7.862;2023-05-29T07:01:00;22.40;99.90
12303;DHT22;6214;48.012;7.862;2023-05-29T07:03:31;22.60;99.90
12303;DHT22;6214;48.012;7.862;2023-05-29T07:05:59;23.60;99.90
12303;DHT22;6214;48.012;7.862;2023-05-29T07:08:27;25.00;99.90
12303;DHT22;6214;48.012;7.862;2023-05-29T07:10:54;27.20;99.90
12303;DHT22;6214;48.012;7.862;2023-05-29T07:13:22;29.00;99.90
12303;DHT22;6214;48.012;7.862;2023-05-29T07:15:51;28.20;99.90
12303;DHT22;6214;48.012;7.862;2023-05-29T07:18:18;29.40;99.90
12303;DHT22;6214;48.012;7.862;2023-05-29T07:20:45;30.50;99.90
12303;DHT22;6214;48.012;7.862;2023-05-29T07:23:12;31.90;97.60
12303;DHT22;6214;48.012;7.862;2023-05-29T07:25:38;33.00;94.60
12303;DHT22;6214;48.012;7.862;2023-05-29T07:28:05;33.60;91.50
12303;DHT22;6214;48.012;7.862;2023-05-29T07:30:47;33.50;89.30
12303;DHT22;6214;48.012;7.862;2023-05-29T07:33:14;33.50;83.30
12303;DHT22;6214;48.012;7.862;2023-05-29T07:35:42;33.30;84.00
12303;DHT22;6214;48.012;7.862;2023-05-29T07:38:09;34.30;80.80
12303;DHT22;6214;48.012;7.862;2023-05-29T07:40:35;35.00;78.50
12303;DHT22;6214;48.012;7.862;2023-05-29T07:43:03;35.30;75.20
12303;DHT22;6214;48.012;7.862;2023-05-29T07:45:30;34.90;72.00
12303;DHT22;6214;48.012;7.862;2023-05-29T07:47:57;34.70;72.20
12303;DHT22;6214;48.012;7.862;2023-05-29T07:50:24;34.90;70.80
12303;DHT22;6214;48.012;7.862;2023-05-29T07:52:51;34.70;68.70
12303;DHT22;6214;48.012;7.862;2023-05-29T07:55:19;34.90;69.40
12303;DHT22;6214;48.012;7.862;2023-05-29T07:57:46;35.50;70.20
12303;DHT22;6214;48.012;7.862;2023-05-29T08:00:13;36.00;67.80
12303;DHT22;6214;48.012;7.862;2023-05-29T08:02:41;35.70;65.70
12303;DHT22;6214;48.012;7.862;2023-05-29T08:05:09;36.50;66.90
12303;DHT22;6214;48.012;7.862;2023-05-29T08:07:36;36.70;63.00
12303;DHT22;6214;48.012;7.862;2023-05-29T08:10:04;36.30;63.00
12303;DHT22;6214;48.012;7.862;2023-05-29T08:12:32;36.10;63.20
12303;DHT22;6214;48.012;7.862;2023-05-29T08:15:02;36.30;63.20
12303;DHT22;6214;48.012;7.862;2023-05-29T08:17:29;37.00;63.70
12303;DHT22;6214;48.012;7.862;2023-05-29T08:19:56;37.50;61.40
12303;DHT22;6214;48.012;7.862;2023-05-29T08:22:28;36.90;59.80
12303;DHT22;6214;48.012;7.862;2023-05-29T08:24:56;36.60;59.50
12303;DHT22;6214;48.012;7.862;2023-05-29T08:27:23;36.70;59.50
12303;DHT22;6214;48.012;7.862;2023-05-29T08:29:50;36.90;60.00
12303;DHT22;6214;48.012;7.862;2023-05-29T08:32:17;37.80;59.10
12303;DHT22;6214;48.012;7.862;2023-05-29T08:34:44;39.20;58.70
12303;DHT22;6214;48.012;7.862;2023-05-29T08:37:12;39.50;54.90
12303;DHT22;6214;48.012;7.862;2023-05-29T08:39:39;39.20;55.90
12303;DHT22;6214;48.012;7.862;2023-05-29T08:42:07;40.10;54.60
12303;DHT22;6214;48.012;7.862;2023-05-29T08:44:39;40.50;53.20
12303;DHT22;6214;48.012;7.862;2023-05-29T08:47:07;40.60;53.50
12303;DHT22;6214;48.012;7.862;2023-05-29T08:49:43;40.20;52.20
12303;DHT22;6214;48.012;7.862;2023-05-29T08:52:16;40.30;52.60
12303;DHT22;6214;48.012;7.862;2023-05-29T08:54:43;39.40;52.60
12303;DHT22;6214;48.012;7.862;2023-05-29T08:57:11;39.60;53.30
12303;DHT22;6214;48.012;7.862;2023-05-29T08:59:51;39.00;54.60
12303;DHT22;6214;48.012;7.862;2023-05-29T09:02:18;40.10;54.50
12303;DHT22;6214;48.012;7.862;2023-05-29T09:04:46;39.70;53.00
12303;DHT22;6214;48.012;7.862;2023-05-29T09:07:16;39.30;52.80
12303;DHT22;6214;48.012;7.862;2023-05-29T09:09:48;38.60;54.30
12303;DHT22;6214;48.012;7.862;2023-05-29T09:12:16;39.20;53.60
12303;DHT22;6214;48.012;7.862;2023-05-29T09:14:44;38.40;51.10
12303;DHT22;6214;48.012;7.862;2023-05-29T09:17:12;37.60;52.00
12303;DHT22;6214;48.012;7.862;2023-05-29T09:19:40;37.90;53.70
12303;DHT22;6214;48.012;7.862;2023-05-29T09:22:09;37.60;52.40
12303;DHT22;6214;48.012;7.862;2023-05-29T09:24:48;37.50;53.70
12303;DHT22;6214;48.012;7.862;2023-05-29T09:27:17;37.60;54.40
12303;DHT22;6214;48.012;7.862;2023-05-29T09:29:45;37.40;53.30
12303;DHT22;6214;48.012;7.862;2023-05-29T09:32:14;35.50;53.60
12303;DHT22;6214;48.012;7.862;2023-05-29T09:34:43;34.70;56.20
12303;DHT22;6214;48.012;7.862;2023-05-29T09:37:11;35.30;56.90
12303;DHT22;6214;48.012;7.862;2023-05-29T09:42:11;34.00;57.30
12303;DHT22;6214;48.012;7.862;2023-05-29T09:44:42;35.40;57.20
12303;DHT22;6214;48.012;7.862;2023-05-29T09:47:13;34.90;55.20
12303;DHT22;6214;48.012;7.862;2023-05-29T09:49:44;34.60;58.00
12303;DHT22;6214;48.012;7.862;2023-05-29T09:52:13;34.90;57.40
12303;DHT22;6214;48.012;7.862;2023-05-29T09:54:44;34.40;59.20
12303;DHT22;6214;48.012;7.862;2023-05-29T09:57:16;34.50;60.10
12303;DHT22;6214;48.012;7.862;2023-05-29T09:59:43;34.00;56.80
12303;DHT22;6214;48.012;7.862;2023-05-29T10:02:11;33.90;58.70
12303;DHT22;6214;48.012;7.862;2023-05-29T10:04:40;33.60;57.70
12303;DHT22;6214;48.012;7.862;2023-05-29T10:07:15;33.50;58.20
12303;DHT22;6214;48.012;7.862;2023-05-29T10:09:44;33.60;58.20
12303;DHT22;6214;48.012;7.862;2023-05-29T10:12:17;33.20;58.50
12303;DHT22;6214;48.012;7.862;2023-05-29T10:14:49;32.50;60.50
12303;DHT22;6214;48.012;7.862;2023-05-29T10:17:18;31.90;59.80
12303;DHT22;6214;48.012;7.862;2023-05-29T10:19:50;30.90;59.70
12303;DHT22;6214;48.012;7.862;2023-05-29T10:22:20;30.90;62.10
12303;DHT22;6214;48.012;7.862;2023-05-29T10:24:49;30.70;61.50
12303;DHT22;6214;48.012;7.862;2023-05-29T10:27:18;30.60;62.60
12303;DHT22;6214;48.012;7.862;2023-05-29T10:30:02;30.00;65.20
12303;DHT22;6214;48.012;7.862;2023-05-29T10:33:30;29.60;65.80
12303;DHT22;6214;48.012;7.862;2023-05-29T10:38:19;29.20;73.00
12303;DHT22;6214;48.012;7.862;2023-05-29T10:40:48;28.70;70.70
12303;DHT22;6214;48.012;7.862;2023-05-29T10:43:30;28.80;69.00
12303;DHT22;6214;48.012;7.862;2023-05-29T10:45:59;29.10;61.50
12303;DHT22;6214;48.012;7.862;2023-05-29T10:50:57;29.50;56.40
12303;DHT22;6214;48.012;7.862;2023-05-29T10:53:26;29.10;52.90
12303;DHT22;6214;48.012;7.862;2023-05-29T10:55:53;28.80;52.10
12303;DHT22;6214;48.012;7.862;2023-05-29T10:58:22;28.80;53.10
12303;DHT22;6214;48.012;7.862;2023-05-29T11:00:52;28.90;54.60
12303;DHT22;6214;48.012;7.862;2023-05-29T11:03:22;28.60;55.40
12303;DHT22;6214;48.012;7.862;2023-05-29T11:06:03;28.90;56.90
12303;DHT22;6214;48.012;7.862;2023-05-29T11:08:44;28.80;54.00
12303;DHT22;6214;48.012;7.862;2023-05-29T11:11:13;29.00;53.80
12303;DHT22;6214;48.012;7.862;2023-05-29T11:13:41;28.90;53.80
12303;DHT22;6214;48.012;7.862;2023-05-29T11:18:57;29.00;52.80
12303;DHT22;6214;48.012;7.862;2023-05-29T11:21:31;28.90;52.90
12303;DHT22;6214;48.012;7.862;2023-05-29T11:24:01;28.80;52.60
12303;DHT22;6214;48.012;7.862;2023-05-29T11:26:37;29.00;53.40
12303;DHT22;6214;48.012;7.862;2023-05-29T11:29:04;28.90;53.80
12303;DHT22;6214;48.012;7.862;2023-05-29T11:31:33;28.90;53.20
12303;DHT22;6214;48.012;7.862;2023-05-29T11:34:03;28.80;54.30
12303;DHT22;6214;48.012;7.862;2023-05-29T11:36:33;28.80;57.60
12303;DHT22;6214;48.012;7.862;2023-05-29T11:39:01;28.80;59.90
12303;DHT22;6214;48.012;7.862;2023-05-29T11:41:28;28.80;56.90
12303;DHT22;6214;48.012;7.862;2023-05-29T11:44:00;28.80;57.80
12303;DHT22;6214;48.012;7.862;2023-05-29T11:46:32;28.70;57.90
12303;DHT22;6214;48.012;7.862;2023-05-29T11:48:59;28.80;56.60
12303;DHT22;6214;48.012;7.862;2023-05-29T11:51:26;29.00;55.90
12303;DHT22;6214;48.012;7.862;2023-05-29T11:53:53;28.90;55.40
12303;DHT22;6214;48.012;7.862;2023-05-29T11:56:26;29.20;57.80
12303;DHT22;6214;48.012;7.862;2023-05-29T11:58:54;29.40;56.00
12303;DHT22;6214;48.012;7.862;2023-05-29T12:01:23;29.30;54.80
12303;DHT22;6214;48.012;7.862;2023-05-29T12:03:52;29.40;55.50
12303;DHT22;6214;48.012;7.862;2023-05-29T12:06:35;29.40;55.30
12303;DHT22;6214;48.012;7.862;2023-05-29T12:09:04;29.00;55.10
12303;DHT22;6214;48.012;7.862;2023-05-29T12:11:31;28.60;55.70
12303;DHT22;6214;48.012;7.862;2023-05-29T12:14:01;28.60;56.20
12303;DHT22;6214;48.012;7.862;2023-05-29T12:16:31;28.90;59.70
12303;DHT22;6214;48.012;7.862;2023-05-29T12:19:00;29.00;63.50
12303;DHT22;6214;48.012;7.862;2023-05-29T12:21:27;28.80;65.60
12303;DHT22;6214;48.012;7.862;2023-05-29T12:23:54;28.80;66.50
12303;DHT22;6214;48.012;7.862;2023-05-29T12:26:39;28.70;65.70
12303;DHT22;6214;48.012;7.862;2023-05-29T12:29:06;29.10;66.20
12303;DHT22;6214;48.012;7.862;2023-05-29T12:31:34;29.00;67.80
12303;DHT22;6214;48.012;7.862;2023-05-29T12:34:06;28.70;62.10
12303;DHT22;6214;48.012;7.862;2023-05-29T12:36:34;28.80;59.40
12303;DHT22;6214;48.012;7.862;2023-05-29T12:39:07;28.70;58.10
12303;DHT22;6214;48.012;7.862;2023-05-29T12:41:37;28.90;60.30
12303;DHT22;6214;48.012;7.862;2023-05-29T12:44:05;28.90;58.70
12303;DHT22;6214;48.012;7.862;2023-05-29T12:46:40;29.00;59.60
12303;DHT22;6214;48.012;7.862;2023-05-29T12:49:16;29.10;59.60
12303;DHT22;6214;48.012;7.862;2023-05-29T12:51:44;29.20;57.80
12303;DHT22;6214;48.012;7.862;2023-05-29T12:54:12;29.40;59.40
12303;DHT22;6214;48.012;7.862;2023-05-29T12:56:39;29.60;58.60
12303;DHT22;6214;48.012;7.862;2023-05-29T12:59:07;29.60;57.70
12303;DHT22;6214;48.012;7.862;2023-05-29T13:01:38;29.50;57.40
12303;DHT22;6214;48.012;7.862;2023-05-29T13:04:08;29.20;57.90
12303;DHT22;6214;48.012;7.862;2023-05-29T13:06:36;29.10;58.70
12303;DHT22;6214;48.012;7.862;2023-05-29T13:09:04;29.10;58.40
12303;DHT22;6214;48.012;7.862;2023-05-29T13:11:32;29.00;58.50
12303;DHT22;6214;48.012;7.862;2023-05-29T13:13:58;29.10;59.10
12303;DHT22;6214;48.012;7.862;2023-05-29T13:16:25;29.20;58.40
12303;DHT22;6214;48.012;7.862;2023-05-29T13:18:52;28.80;57.70
12303;DHT22;6214;48.012;7.862;2023-05-29T13:21:19;28.80;58.20
12303;DHT22;6214;48.012;7.862;2023-05-29T13:23:46;28.50;59.30
12303;DHT22;6214;48.012;7.862;2023-05-29T13:26:13;28.50;59.30
12303;DHT22;6214;48.012;7.862;2023-05-29T13:28:40;28.60;59.50
12303;DHT22;6214;48.012;7.862;2023-05-29T13:31:07;28.40;59.00
12303;DHT22;6214;48.012;7.862;2023-05-29T13:33:34;28.30;58.90
12303;DHT22;6214;48.012;7.862;2023-05-29T13:36:01;28.40;58.90
12303;DHT22;6214;48.012;7.862;2023-05-29T13:38:29;28.50;59.60
12303;DHT22;6214;48.012;7.862;2023-05-29T13:40:56;28.40;58.40
12303;DHT22;6214;48.012;7.862;2023-05-29T13:43:23;28.10;59.00
12303;DHT22;6214;48.012;7.862;2023-05-29T13:46:05;28.00;58.30
12303;DHT22;6214;48.012;7.862;2023-05-29T13:48:32;27.90;58.90
12303;DHT22;6214;48.012;7.862;2023-05-29T13:51:00;27.90;58.90
12303;DHT22;6214;48.012;7.862;2023-05-29T13:53:27;27.90;59.00
12303;DHT22;6214;48.012;7.862;2023-05-29T13:55:54;28.10;59.30
12303;DHT22;6214;48.012;7.862;2023-05-29T13:58:22;28.10;59.00
12303;DHT22;6214;48.012;7.862;2023-05-29T14:00:49;28.30;58.90
12303;DHT22;6214;48.012;7.862;2023-05-29T14:03:16;28.20;59.00
12303;DHT22;6214;48.012;7.862;2023-05-29T14:05:44;28.40;59.00
12303;DHT22;6214;48.012;7.862;2023-05-29T14:08:11;28.60;59.60
12303;DHT22;6214;48.012;7.862;2023-05-29T14:10:38;28.70;59.90
12303;DHT22;6214;48.012;7.862;2023-05-29T14:13:05;28.70;59.40
12303;DHT22;6214;48.012;7.862;2023-05-29T14:15:32;28.80;59.70
12303;DHT22;6214;48.012;7.862;2023-05-29T14:17:59;28.80;59.40
12303;DHT22;6214;48.012;7.862;2023-05-29T14:20:29;28.90;59.50
12303;DHT22;6214;48.012;7.862;2023-05-29T14:22:56;28.50;59.20
12303;DHT22;6214;48.012;7.862;2023-05-29T14:25:23;28.40;60.60
12303;DHT22;6214;48.012;7.862;2023-05-29T14:27:50;28.20;59.90
12303;DHT22;6214;48.012;7.862;2023-05-29T14:30:17;28.20;59.80
12303;DHT22;6214;48.012;7.862;2023-05-29T14:32:44;28.40;60.60
12303;DHT22;6214;48.012;7.862;2023-05-29T14:35:11;28.40;60.70
12303;DHT22;6214;48.012;7.862;2023-05-29T14:37:38;28.30;59.90
12303;DHT22;6214;48.012;7.862;2023-05-29T14:40:05;28.10;60.20
12303;DHT22;6214;48.012;7.862;2023-05-29T14:42:33;27.90;59.80
12303;DHT22;6214;48.012;7.862;2023-05-29T14:45:00;27.80;60.00
12303;DHT22;6214;48.012;7.862;2023-05-29T14:47:27;27.90;60.60
12303;DHT22;6214;48.012;7.862;2023-05-29T14:49:54;28.20;60.60
12303;DHT22;6214;48.012;7.862;2023-05-29T14:52:21;28.30;60.60
12303;DHT22;6214;48.012;7.862;2023-05-29T14:54:48;28.30;60.90
12303;DHT22;6214;48.012;7.862;2023-05-29T14:57:15;28.30;60.60
12303;DHT22;6214;48.012;7.862;2023-05-29T14:59:42;28.40;60.40
12303;DHT22;6214;48.012;7.862;2023-05-29T15:02:09;28.40;59.70
12303;DHT22;6214;48.012;7.862;2023-05-29T15:04:36;28.30;59.10
12303;DHT22;6214;48.012;7.862;2023-05-29T15:07:04;28.50;59.40
12303;DHT22;6214;48.012;7.862;2023-05-29T15:09:33;28.50;59.70
12303;DHT22;6214;48.012;7.862;2023-05-29T15:12:00;28.50;59.40
12303;DHT22;6214;48.012;7.862;2023-05-29T15:14:27;28.40;59.00
12303;DHT22;6214;48.012;7.862;2023-05-29T15:16:55;28.40;59.20
12303;DHT22;6214;48.012;7.862;2023-05-29T15:19:23;28.40;59.60
12303;DHT22;6214;48.012;7.862;2023-05-29T15:21:50;28.30;59.20
12303;DHT22;6214;48.012;7.862;2023-05-29T15:24:17;28.30;59.10
12303;DHT22;6214;48.012;7.862;2023-05-29T15:26:44;28.30;59.10
12303;DHT22;6214;48.012;7.862;2023-05-29T15:29:11;28.30;58.20
12303;DHT22;6214;48.012;7.862;2023-05-29T15:31:38;28.30;57.10
12303;DHT22;6214;48.012;7.862;2023-05-29T15:34:05;28.40;57.80
12303;DHT22;6214;48.012;7.862;2023-05-29T15:36:32;28.30;57.30
12303;DHT22;6214;48.012;7.862;2023-05-29T15:38:59;28.30;57.60
12303;DHT22;6214;48.012;7.862;2023-05-29T15:41:26;28.40;58.10
12303;DHT22;6214;48.012;7.862;2023-05-29T15:43:55;28.30;57.30
12303;DHT22;6214;48.012;7.862;2023-05-29T15:46:26;28.40;57.10
12303;DHT22;6214;48.012;7.862;2023-05-29T15:48:53;28.50;57.10
12303;DHT22;6214;48.012;7.862;2023-05-29T15:51:20;28.20;56.90
12303;DHT22;6214;48.012;7.862;2023-05-29T15:53:47;28.30;56.90
12303;DHT22;6214;48.012;7.862;2023-05-29T15:56:14;28.20;56.90
12303;DHT22;6214;48.012;7.862;2023-05-29T15:58:41;28.10;56.50
12303;DHT22;6214;48.012;7.862;2023-05-29T16:01:08;28.10;56.70
12303;DHT22;6214;48.012;7.862;2023-05-29T16:03:35;28.10;56.30
12303;DHT22;6214;48.012;7.862;2023-05-29T16:06:02;28.20;57.40
12303;DHT22;6214;48.012;7.862;2023-05-29T16:08:29;28.20;56.80
12303;DHT22;6214;48.012;7.862;2023-05-29T16:10:56;28.10;57.00
12303;DHT22;6214;48.012;7.862;2023-05-29T16:13:24;28.20;57.40
12303;DHT22;6214;48.012;7.862;2023-05-29T16:15:51;28.20;57.00
12303;DHT22;6214;48.012;7.862;2023-05-29T16:18:19;28.20;57.50
12303;DHT22;6214;48.012;7.862;2023-05-29T16:20:46;28.20;57.00